Strona główna
METAR-TAF:

METAR-TAF

Lotnisko :

Lotnisko Vöslau-Kottingbrunn

Bad Vöslau, Austria

Szerokość geograficzna: 47-57-52N, Długość geograficzna: 016-15-34E, wysokość: 233 m

Aktualna obserwacja pogody

Raport powstał 1 godzina i 0 minut temu, godzina 11:00 UTC
Wiatr 15 kt od zachodnio-północny zachód w porywach dochodzący do 35 kt
Temperatura 15°C
Wilgotność 27%
Ciśnienie

METAR: LOAV 031100Z 29015G35KT 25KM FEW040CU 15/M04

czas: 14:00 (12:00 UTC)

Prognoza

Raport powstał 35 minut temu, godzina 11:25 UTC
Prognoza ważna od 03 godzina 12 UTC do 03 godzina 21 UTC
Wiatr 12 kt od zachodnio-północny zachód
Widzialność 10 km lub więcej
Mało chmury na wysokości 4500 ft
Przejściowo
od 03 godzina 12 UTC do 03 godzina 17 UTC
Wiatr 15 kt od północno-północny zachód w porywach dochodzący do 25 kt

TAF: LOAV 031125Z 0312/0321 29012KT 9999 FEW045 TEMPO 0312/0317 33015G25KT

Obserwacja i prognoza pogody dla ponad 4000 lotnisk (raport METAR i TAF).

Dostępne stacje oznaczono żółtymi i czerwonymi punktami na mapie.

Najedź kursorem aby zobaczyć nazwę stacji.

Kliknij aby zobaczyć obserwacje i prognozy pogody.

Aby zmienić mapę: kliknij na zielony przycisk z czarnym krzyżykiem, aby powiększyć; na zielony przycisk z myślnikiem, aby pomniejszyć; na zielone strzałki, aby przejść do map sąsiednich.


METAR-TAF: